sensor_id;sensor_type;location;lat;lon;timestamp;pressure;altitude;pressure_sealevel;temperature;humidity
80511;BME280;69840;53.040;8.600;2023-06-05T00:01:43;102499.94;;;9.46;85.55
80511;BME280;69840;53.040;8.600;2023-06-05T00:05:55;102498.53;;;9.42;85.47
80511;BME280;69840;53.040;8.600;2023-06-05T00:10:08;102499.47;;;9.41;85.62
80511;BME280;69840;53.040;8.600;2023-06-05T00:14:21;102487.22;;;9.40;85.29
80511;BME280;69840;53.040;8.600;2023-06-05T00:18:33;102491.28;;;9.33;85.43
80511;BME280;69840;53.040;8.600;2023-06-05T00:22:46;102492.22;;;9.32;85.53
80511;BME280;69840;53.040;8.600;2023-06-05T00:26:58;102493.19;;;9.31;85.78
80511;BME280;69840;53.040;8.600;2023-06-05T00:31:11;102497.72;;;9.29;85.55
80511;BME280;69840;53.040;8.600;2023-06-05T00:35:24;102492.34;;;9.30;85.99
80511;BME280;69840;53.040;8.600;2023-06-05T00:39:37;102486.06;;;9.20;86.03
80511;BME280;69840;53.040;8.600;2023-06-05T00:43:50;102489.75;;;9.18;85.91
80511;BME280;69840;53.040;8.600;2023-06-05T00:48:03;102488.06;;;9.17;86.04
80511;BME280;69840;53.040;8.600;2023-06-05T00:52:17;102486.50;;;9.14;86.19
80511;BME280;69840;53.040;8.600;2023-06-05T00:56:30;102483.16;;;9.12;86.52
80511;BME280;69840;53.040;8.600;2023-06-05T01:00:43;102477.03;;;9.11;86.41
80511;BME280;69840;53.040;8.600;2023-06-05T01:04:56;102481.81;;;9.06;86.44
80511;BME280;69840;53.040;8.600;2023-06-05T01:09:09;102480.84;;;9.07;87.12
80511;BME280;69840;53.040;8.600;2023-06-05T01:13:26;102473.66;;;9.09;87.64
80511;BME280;69840;53.040;8.600;2023-06-05T01:17:42;102466.94;;;9.05;87.60
80511;BME280;69840;53.040;8.600;2023-06-05T01:21:55;102467.88;;;9.04;87.71
80511;BME280;69840;53.040;8.600;2023-06-05T01:26:08;102461.75;;;9.04;87.91
80511;BME280;69840;53.040;8.600;2023-06-05T01:34:46;102463.22;;;9.08;88.22
80511;BME280;69840;53.040;8.600;2023-06-05T01:39:00;102460.47;;;9.09;88.22
80511;BME280;69840;53.040;8.600;2023-06-05T01:43:15;102455.22;;;9.09;88.21
80511;BME280;69840;53.040;8.600;2023-06-05T01:47:28;102457.13;;;9.07;88.18
80511;BME280;69840;53.040;8.600;2023-06-05T01:51:41;102456.28;;;9.07;88.18
80511;BME280;69840;53.040;8.600;2023-06-05T01:55:54;102454.47;;;9.07;88.24
80511;BME280;69840;53.040;8.600;2023-06-05T02:00:07;102454.91;;;9.01;88.18
80511;BME280;69840;53.040;8.600;2023-06-05T02:04:24;102451.84;;;9.07;88.27
80511;BME280;69840;53.040;8.600;2023-06-05T02:08:36;102446.66;;;9.06;88.44
80511;BME280;69840;53.040;8.600;2023-06-05T02:12:50;102447.00;;;9.01;88.44
80511;BME280;69840;53.040;8.600;2023-06-05T02:17:04;102443.19;;;9.05;88.40
80511;BME280;69840;53.040;8.600;2023-06-05T02:21:16;102433.81;;;9.01;88.37
80511;BME280;69840;53.040;8.600;2023-06-05T02:25:29;102435.72;;;8.99;88.45
80511;BME280;69840;53.040;8.600;2023-06-05T02:29:41;102430.56;;;8.98;88.33
80511;BME280;69840;53.040;8.600;2023-06-05T02:33:54;102423.38;;;9.00;88.43
80511;BME280;69840;53.040;8.600;2023-06-05T02:38:08;102422.41;;;9.01;88.55
80511;BME280;69840;53.040;8.600;2023-06-05T02:42:21;102421.34;;;9.03;88.40
80511;BME280;69840;53.040;8.600;2023-06-05T02:46:33;102418.09;;;9.00;88.25
80511;BME280;69840;53.040;8.600;2023-06-05T02:50:46;102417.38;;;8.98;88.52
80511;BME280;69840;53.040;8.600;2023-06-05T02:54:59;102413.88;;;8.97;88.68
80511;BME280;69840;53.040;8.600;2023-06-05T02:59:11;102414.63;;;8.99;88.47
80511;BME280;69840;53.040;8.600;2023-06-05T03:03:24;102409.47;;;8.98;88.41
80511;BME280;69840;53.040;8.600;2023-06-05T03:07:37;102416.53;;;8.97;88.30
80511;BME280;69840;53.040;8.600;2023-06-05T03:11:51;102412.34;;;8.95;88.32
80511;BME280;69840;53.040;8.600;2023-06-05T03:16:05;102422.91;;;8.95;88.62
80511;BME280;69840;53.040;8.600;2023-06-05T03:20:20;102414.88;;;8.96;88.80
80511;BME280;69840;53.040;8.600;2023-06-05T03:24:33;102420.00;;;8.98;88.57
80511;BME280;69840;53.040;8.600;2023-06-05T03:28:49;102411.75;;;9.02;88.74
80511;BME280;69840;53.040;8.600;2023-06-05T03:33:04;102413.44;;;9.03;88.64
80511;BME280;69840;53.040;8.600;2023-06-05T03:37:17;102416.47;;;9.10;88.71
80511;BME280;69840;53.040;8.600;2023-06-05T03:41:31;102411.94;;;9.12;88.67
80511;BME280;69840;53.040;8.600;2023-06-05T03:45:44;102410.72;;;9.16;88.39
80511;BME280;69840;53.040;8.600;2023-06-05T03:49:57;102411.13;;;9.23;88.21
80511;BME280;69840;53.040;8.600;2023-06-05T03:54:10;102407.31;;;9.27;88.04
80511;BME280;69840;53.040;8.600;2023-06-05T03:58:23;102406.84;;;9.33;88.13
80511;BME280;69840;53.040;8.600;2023-06-05T04:02:38;102406.28;;;9.40;87.96
80511;BME280;69840;53.040;8.600;2023-06-05T04:06:54;102415.28;;;9.49;87.76
80511;BME280;69840;53.040;8.600;2023-06-05T04:11:08;102411.09;;;9.58;87.26
80511;BME280;69840;53.040;8.600;2023-06-05T04:15:24;102414.22;;;9.63;87.32
80511;BME280;69840;53.040;8.600;2023-06-05T04:19:39;102408.13;;;9.73;86.86
80511;BME280;69840;53.040;8.600;2023-06-05T04:23:52;102411.38;;;9.88;86.27
80511;BME280;69840;53.040;8.600;2023-06-05T04:28:05;102415.22;;;9.95;85.88
80511;BME280;69840;53.040;8.600;2023-06-05T04:32:17;102412.59;;;10.06;85.88
80511;BME280;69840;53.040;8.600;2023-06-05T04:36:30;102411.66;;;10.18;85.41
80511;BME280;69840;53.040;8.600;2023-06-05T04:40:42;102409.59;;;10.33;84.89
80511;BME280;69840;53.040;8.600;2023-06-05T04:44:57;102410.91;;;10.50;84.51
80511;BME280;69840;53.040;8.600;2023-06-05T04:49:12;102415.75;;;10.77;83.69
80511;BME280;69840;53.040;8.600;2023-06-05T04:53:26;102419.81;;;11.45;81.34
80511;BME280;69840;53.040;8.600;2023-06-05T04:57:39;102405.94;;;12.53;78.07
80511;BME280;69840;53.040;8.600;2023-06-05T05:01:51;102408.09;;;13.37;73.87
80511;BME280;69840;53.040;8.600;2023-06-05T05:06:05;102403.25;;;14.43;69.77
80511;BME280;69840;53.040;8.600;2023-06-05T05:10:17;102398.59;;;14.72;65.83
80511;BME280;69840;53.040;8.600;2023-06-05T05:14:30;102400.41;;;15.69;64.31
80511;BME280;69840;53.040;8.600;2023-06-05T05:18:43;102404.91;;;16.44;62.82
80511;BME280;69840;53.040;8.600;2023-06-05T05:22:56;102404.94;;;16.61;61.21
80511;BME280;69840;53.040;8.600;2023-06-05T05:27:09;102407.72;;;17.09;59.00
80511;BME280;69840;53.040;8.600;2023-06-05T05:31:22;102417.91;;;17.46;57.71
80511;BME280;69840;53.040;8.600;2023-06-05T05:35:35;102420.22;;;17.09;59.22
80511;BME280;69840;53.040;8.600;2023-06-05T05:39:47;102413.88;;;17.10;57.71
80511;BME280;69840;53.040;8.600;2023-06-05T05:44:00;102409.34;;;16.86;59.08
80511;BME280;69840;53.040;8.600;2023-06-05T05:48:12;102412.53;;;16.81;59.63
80511;BME280;69840;53.040;8.600;2023-06-05T05:52:25;102412.06;;;16.36;60.70
80511;BME280;69840;53.040;8.600;2023-06-05T05:56:37;102424.00;;;15.46;64.11
80511;BME280;69840;53.040;8.600;2023-06-05T06:00:50;102420.34;;;14.86;66.93
80511;BME280;69840;53.040;8.600;2023-06-05T06:05:03;102415.72;;;15.05;66.03
80511;BME280;69840;53.040;8.600;2023-06-05T06:09:15;102417.72;;;14.58;68.32
80511;BME280;69840;53.040;8.600;2023-06-05T06:13:28;102417.59;;;15.13;66.06
80511;BME280;69840;53.040;8.600;2023-06-05T06:17:40;102418.22;;;15.07;66.93
80511;BME280;69840;53.040;8.600;2023-06-05T06:21:56;102416.16;;;15.01;66.44
80511;BME280;69840;53.040;8.600;2023-06-05T06:26:08;102420.94;;;14.80;67.19
80511;BME280;69840;53.040;8.600;2023-06-05T06:30:21;102417.97;;;15.36;65.58
80511;BME280;69840;53.040;8.600;2023-06-05T06:34:33;102421.84;;;15.93;64.61
80511;BME280;69840;53.040;8.600;2023-06-05T06:38:45;102424.47;;;15.59;65.24
80511;BME280;69840;53.040;8.600;2023-06-05T06:42:58;102428.66;;;15.44;66.89
80511;BME280;69840;53.040;8.600;2023-06-05T06:47:20;102424.53;;;15.50;67.06
80511;BME280;69840;53.040;8.600;2023-06-05T06:51:33;102439.16;;;15.45;68.98
80511;BME280;69840;53.040;8.600;2023-06-05T06:55:45;102433.13;;;15.00;67.49
80511;BME280;69840;53.040;8.600;2023-06-05T06:59:58;102433.50;;;15.23;67.87
80511;BME280;69840;53.040;8.600;2023-06-05T07:04:10;102428.56;;;14.74;69.19
80511;BME280;69840;53.040;8.600;2023-06-05T07:08:22;102430.47;;;15.00;68.00
80511;BME280;69840;53.040;8.600;2023-06-05T07:12:35;102435.19;;;15.24;67.90
80511;BME280;69840;53.040;8.600;2023-06-05T07:16:48;102443.19;;;15.67;67.06
80511;BME280;69840;53.040;8.600;2023-06-05T07:21:00;102434.09;;;15.78;65.37
80511;BME280;69840;53.040;8.600;2023-06-05T07:25:13;102434.63;;;15.56;67.88
80511;BME280;69840;53.040;8.600;2023-06-05T07:29:26;102437.66;;;15.61;67.75
80511;BME280;69840;53.040;8.600;2023-06-05T07:33:38;102433.72;;;15.12;68.29
80511;BME280;69840;53.040;8.600;2023-06-05T07:37:51;102428.03;;;15.68;67.45
80511;BME280;69840;53.040;8.600;2023-06-05T07:42:03;102427.78;;;16.13;65.57
80511;BME280;69840;53.040;8.600;2023-06-05T07:46:16;102414.38;;;16.31;65.46
80511;BME280;69840;53.040;8.600;2023-06-05T07:50:29;102412.44;;;16.49;63.61
80511;BME280;69840;53.040;8.600;2023-06-05T07:54:41;102412.75;;;16.46;63.80
80511;BME280;69840;53.040;8.600;2023-06-05T07:58:54;102415.09;;;16.49;64.41
80511;BME280;69840;53.040;8.600;2023-06-05T08:03:06;102425.50;;;16.18;65.20
80511;BME280;69840;53.040;8.600;2023-06-05T08:07:19;102418.72;;;16.40;65.61
80511;BME280;69840;53.040;8.600;2023-06-05T08:11:32;102424.78;;;16.58;65.14
80511;BME280;69840;53.040;8.600;2023-06-05T08:15:44;102428.19;;;16.84;64.13
80511;BME280;69840;53.040;8.600;2023-06-05T08:19:57;102418.22;;;17.19;63.44
80511;BME280;69840;53.040;8.600;2023-06-05T08:24:10;102417.06;;;17.13;64.43
80511;BME280;69840;53.040;8.600;2023-06-05T08:28:22;102407.38;;;17.04;63.03
80511;BME280;69840;53.040;8.600;2023-06-05T08:32:35;102412.69;;;17.37;59.93
80511;BME280;69840;53.040;8.600;2023-06-05T08:36:47;102404.03;;;17.10;62.20
80511;BME280;69840;53.040;8.600;2023-06-05T08:41:02;102401.00;;;17.62;61.49
80511;BME280;69840;53.040;8.600;2023-06-05T08:45:15;102395.16;;;17.42;61.30
80511;BME280;69840;53.040;8.600;2023-06-05T08:49:28;102402.78;;;17.86;60.40
80511;BME280;69840;53.040;8.600;2023-06-05T08:53:43;102391.38;;;18.00;58.76
80511;BME280;69840;53.040;8.600;2023-06-05T08:57:58;102389.13;;;18.20;58.91
80511;BME280;69840;53.040;8.600;2023-06-05T09:02:11;102385.84;;;18.41;58.27
80511;BME280;69840;53.040;8.600;2023-06-05T09:06:24;102382.13;;;18.11;59.49
80511;BME280;69840;53.040;8.600;2023-06-05T09:10:36;102379.34;;;17.96;59.75
80511;BME280;69840;53.040;8.600;2023-06-05T09:14:49;102383.72;;;17.81;58.94
80511;BME280;69840;53.040;8.600;2023-06-05T09:19:03;102373.06;;;18.12;59.20
80511;BME280;69840;53.040;8.600;2023-06-05T09:23:26;102379.41;;;18.19;58.25
80511;BME280;69840;53.040;8.600;2023-06-05T09:27:39;102380.78;;;18.46;57.12
80511;BME280;69840;53.040;8.600;2023-06-05T09:31:53;102380.53;;;18.86;57.03
80511;BME280;69840;53.040;8.600;2023-06-05T09:36:09;102371.72;;;18.78;58.69
80511;BME280;69840;53.040;8.600;2023-06-05T09:40:36;102375.13;;;18.41;56.78
80511;BME280;69840;53.040;8.600;2023-06-05T09:44:58;102380.91;;;18.83;57.81
80511;BME280;69840;53.040;8.600;2023-06-05T09:49:10;102377.97;;;19.16;57.30
80511;BME280;69840;53.040;8.600;2023-06-05T09:53:24;102379.97;;;19.14;56.16
80511;BME280;69840;53.040;8.600;2023-06-05T09:57:37;102375.31;;;19.31;56.10
80511;BME280;69840;53.040;8.600;2023-06-05T10:01:51;102358.66;;;21.02;51.41
80511;BME280;69840;53.040;8.600;2023-06-05T10:06:05;102353.75;;;20.84;49.51
80511;BME280;69840;53.040;8.600;2023-06-05T10:10:18;102355.56;;;20.77;48.05
80511;BME280;69840;53.040;8.600;2023-06-05T10:14:31;102357.84;;;22.46;45.42
80511;BME280;69840;53.040;8.600;2023-06-05T10:18:48;102347.41;;;22.23;45.46
80511;BME280;69840;53.040;8.600;2023-06-05T10:23:01;102352.50;;;23.58;43.51
80511;BME280;69840;53.040;8.600;2023-06-05T10:31:48;102340.25;;;22.70;44.96
80511;BME280;69840;53.040;8.600;2023-06-05T10:36:13;102335.69;;;22.64;44.61
80511;BME280;69840;53.040;8.600;2023-06-05T10:40:30;102328.00;;;22.67;45.97
80511;BME280;69840;53.040;8.600;2023-06-05T10:44:43;102324.28;;;21.53;47.42
80511;BME280;69840;53.040;8.600;2023-06-05T10:53:45;102323.47;;;23.27;45.21
80511;BME280;69840;53.040;8.600;2023-06-05T11:06:27;102313.84;;;24.09;42.80
80511;BME280;69840;53.040;8.600;2023-06-05T11:11:01;102310.63;;;23.09;44.95
80511;BME280;69840;53.040;8.600;2023-06-05T11:15:35;102305.47;;;23.79;42.90
80511;BME280;69840;53.040;8.600;2023-06-05T11:19:48;102302.47;;;25.56;40.32
80511;BME280;69840;53.040;8.600;2023-06-05T11:24:13;102306.13;;;25.07;40.35
80511;BME280;69840;53.040;8.600;2023-06-05T11:28:43;102301.72;;;26.15;37.42
80511;BME280;69840;53.040;8.600;2023-06-05T11:32:55;102299.69;;;25.26;39.64
80511;BME280;69840;53.040;8.600;2023-06-05T11:37:17;102295.44;;;26.75;36.73
80511;BME280;69840;53.040;8.600;2023-06-05T11:41:30;102290.38;;;27.37;31.94
80511;BME280;69840;53.040;8.600;2023-06-05T11:45:56;102289.66;;;28.38;32.88
80511;BME280;69840;53.040;8.600;2023-06-05T11:50:14;102292.94;;;27.95;31.70
80511;BME280;69840;53.040;8.600;2023-06-05T11:54:31;102286.28;;;29.53;30.36
80511;BME280;69840;53.040;8.600;2023-06-05T11:58:43;102283.28;;;29.16;32.55
80511;BME280;69840;53.040;8.600;2023-06-05T12:02:56;102280.53;;;29.33;29.65
80511;BME280;69840;53.040;8.600;2023-06-05T12:07:09;102277.59;;;29.18;30.25
80511;BME280;69840;53.040;8.600;2023-06-05T12:11:24;102278.38;;;28.96;31.66
80511;BME280;69840;53.040;8.600;2023-06-05T12:15:37;102272.22;;;27.77;34.33
80511;BME280;69840;53.040;8.600;2023-06-05T12:19:53;102268.91;;;28.82;29.75
80511;BME280;69840;53.040;8.600;2023-06-05T12:24:06;102267.75;;;28.45;33.44
80511;BME280;69840;53.040;8.600;2023-06-05T12:28:19;102262.34;;;29.17;32.68
80511;BME280;69840;53.040;8.600;2023-06-05T12:32:31;102254.97;;;28.45;33.83
80511;BME280;69840;53.040;8.600;2023-06-05T12:36:44;102253.72;;;28.70;35.03
80511;BME280;69840;53.040;8.600;2023-06-05T12:40:56;102249.44;;;28.74;34.70
80511;BME280;69840;53.040;8.600;2023-06-05T12:45:15;102244.69;;;28.64;35.27
80511;BME280;69840;53.040;8.600;2023-06-05T12:49:28;102233.66;;;26.24;37.50
80511;BME280;69840;53.040;8.600;2023-06-05T12:53:40;102244.78;;;26.04;40.72
80511;BME280;69840;53.040;8.600;2023-06-05T12:57:53;102237.56;;;26.28;38.06
80511;BME280;69840;53.040;8.600;2023-06-05T13:02:05;102241.06;;;27.05;38.15
80511;BME280;69840;53.040;8.600;2023-06-05T13:06:18;102241.38;;;26.62;40.80
80511;BME280;69840;53.040;8.600;2023-06-05T13:10:31;102227.25;;;26.71;39.07
80511;BME280;69840;53.040;8.600;2023-06-05T13:14:43;102231.72;;;26.89;39.84
80511;BME280;69840;53.040;8.600;2023-06-05T13:18:56;102227.16;;;26.13;40.39
80511;BME280;69840;53.040;8.600;2023-06-05T13:23:08;102224.97;;;28.23;39.23
80511;BME280;69840;53.040;8.600;2023-06-05T13:27:21;102216.25;;;27.13;40.89
80511;BME280;69840;53.040;8.600;2023-06-05T13:31:33;102221.78;;;25.95;40.46
80511;BME280;69840;53.040;8.600;2023-06-05T13:35:46;102211.94;;;26.12;41.19
80511;BME280;69840;53.040;8.600;2023-06-05T13:39:58;102206.69;;;27.10;44.88
80511;BME280;69840;53.040;8.600;2023-06-05T13:44:11;102201.06;;;27.00;40.68
80511;BME280;69840;53.040;8.600;2023-06-05T13:48:23;102209.31;;;26.94;42.33
80511;BME280;69840;53.040;8.600;2023-06-05T13:52:36;102210.97;;;26.71;40.44
80511;BME280;69840;53.040;8.600;2023-06-05T13:56:48;102205.06;;;26.39;40.18
80511;BME280;69840;53.040;8.600;2023-06-05T14:01:01;102197.38;;;26.36;41.69
80511;BME280;69840;53.040;8.600;2023-06-05T14:05:13;102190.13;;;26.07;42.26
80511;BME280;69840;53.040;8.600;2023-06-05T14:09:26;102192.56;;;26.62;38.20
80511;BME280;69840;53.040;8.600;2023-06-05T14:13:39;102197.59;;;26.93;41.37
80511;BME280;69840;53.040;8.600;2023-06-05T14:17:52;102202.44;;;25.91;41.54
80511;BME280;69840;53.040;8.600;2023-06-05T14:22:05;102191.19;;;26.06;42.90
80511;BME280;69840;53.040;8.600;2023-06-05T14:26:17;102186.66;;;25.88;43.38
80511;BME280;69840;53.040;8.600;2023-06-05T14:30:30;102179.97;;;26.44;41.35
80511;BME280;69840;53.040;8.600;2023-06-05T14:34:42;102177.50;;;26.01;44.30
80511;BME280;69840;53.040;8.600;2023-06-05T14:38:55;102190.78;;;26.32;40.69
80511;BME280;69840;53.040;8.600;2023-06-05T14:43:08;102183.50;;;26.56;42.85
80511;BME280;69840;53.040;8.600;2023-06-05T14:47:20;102175.25;;;25.20;43.46
80511;BME280;69840;53.040;8.600;2023-06-05T14:51:33;102180.34;;;25.64;41.87
80511;BME280;69840;53.040;8.600;2023-06-05T14:55:45;102186.81;;;25.45;43.58
80511;BME280;69840;53.040;8.600;2023-06-05T14:59:58;102177.03;;;25.44;46.29
80511;BME280;69840;53.040;8.600;2023-06-05T15:04:13;102182.06;;;26.42;43.34
80511;BME280;69840;53.040;8.600;2023-06-05T15:08:26;102169.50;;;25.64;43.28
80511;BME280;69840;53.040;8.600;2023-06-05T15:12:38;102155.59;;;24.88;46.58
80511;BME280;69840;53.040;8.600;2023-06-05T15:16:51;102166.69;;;25.04;44.50
80511;BME280;69840;53.040;8.600;2023-06-05T15:21:03;102162.69;;;25.73;42.32
80511;BME280;69840;53.040;8.600;2023-06-05T15:25:16;102160.66;;;24.84;43.26
80511;BME280;69840;53.040;8.600;2023-06-05T15:29:28;102153.38;;;23.85;48.23
80511;BME280;69840;53.040;8.600;2023-06-05T15:33:41;102159.34;;;24.25;47.28
80511;BME280;69840;53.040;8.600;2023-06-05T15:37:54;102150.66;;;23.60;45.15
80511;BME280;69840;53.040;8.600;2023-06-05T15:42:07;102157.31;;;23.51;46.29
80511;BME280;69840;53.040;8.600;2023-06-05T15:46:19;102157.09;;;23.01;47.52
80511;BME280;69840;53.040;8.600;2023-06-05T15:50:32;102162.09;;;22.91;48.79
80511;BME280;69840;53.040;8.600;2023-06-05T15:54:44;102146.69;;;23.12;47.00
80511;BME280;69840;53.040;8.600;2023-06-05T15:59:05;102151.00;;;23.70;45.62
80511;BME280;69840;53.040;8.600;2023-06-05T16:03:17;102148.38;;;23.51;46.70
80511;BME280;69840;53.040;8.600;2023-06-05T16:07:30;102144.16;;;23.17;46.50
80511;BME280;69840;53.040;8.600;2023-06-05T16:11:42;102146.16;;;21.97;49.75
80511;BME280;69840;53.040;8.600;2023-06-05T16:15:55;102151.59;;;22.17;48.81
80511;BME280;69840;53.040;8.600;2023-06-05T16:20:08;102141.38;;;21.19;51.98
80511;BME280;69840;53.040;8.600;2023-06-05T16:24:21;102138.84;;;21.11;52.11
80511;BME280;69840;53.040;8.600;2023-06-05T16:28:33;102150.72;;;21.84;50.65
80511;BME280;69840;53.040;8.600;2023-06-05T16:32:46;102141.13;;;21.61;49.50
80511;BME280;69840;53.040;8.600;2023-06-05T16:36:58;102140.69;;;21.58;50.21
80511;BME280;69840;53.040;8.600;2023-06-05T16:41:11;102148.25;;;21.21;52.05
80511;BME280;69840;53.040;8.600;2023-06-05T16:45:23;102147.00;;;20.55;54.09
80511;BME280;69840;53.040;8.600;2023-06-05T16:49:36;102135.88;;;20.92;53.09
80511;BME280;69840;53.040;8.600;2023-06-05T16:53:49;102142.16;;;20.72;53.25
80511;BME280;69840;53.040;8.600;2023-06-05T16:58:01;102135.16;;;20.77;53.06
80511;BME280;69840;53.040;8.600;2023-06-05T17:02:14;102135.38;;;20.76;52.63
80511;BME280;69840;53.040;8.600;2023-06-05T17:06:26;102139.50;;;20.22;53.82
80511;BME280;69840;53.040;8.600;2023-06-05T17:10:39;102141.84;;;19.83;55.21
80511;BME280;69840;53.040;8.600;2023-06-05T17:14:52;102130.66;;;19.79;54.55
80511;BME280;69840;53.040;8.600;2023-06-05T17:19:05;102139.03;;;19.55;54.68
80511;BME280;69840;53.040;8.600;2023-06-05T17:23:17;102141.00;;;19.82;55.85
80511;BME280;69840;53.040;8.600;2023-06-05T17:27:30;102137.09;;;19.49;55.49
80511;BME280;69840;53.040;8.600;2023-06-05T17:31:42;102145.28;;;19.26;56.24
80511;BME280;69840;53.040;8.600;2023-06-05T17:35:55;102136.06;;;18.84;57.35
80511;BME280;69840;53.040;8.600;2023-06-05T17:40:08;102143.28;;;18.84;57.26
80511;BME280;69840;53.040;8.600;2023-06-05T17:44:20;102136.91;;;18.85;57.15
80511;BME280;69840;53.040;8.600;2023-06-05T17:48:33;102142.78;;;18.28;58.51
80511;BME280;69840;53.040;8.600;2023-06-05T17:52:46;102156.50;;;18.10;60.44
80511;BME280;69840;53.040;8.600;2023-06-05T17:56:59;102145.97;;;17.86;60.70
80511;BME280;69840;53.040;8.600;2023-06-05T18:01:11;102145.41;;;17.37;64.06
80511;BME280;69840;53.040;8.600;2023-06-05T18:05:24;102143.25;;;17.32;62.08
80511;BME280;69840;53.040;8.600;2023-06-05T18:09:37;102143.00;;;17.19;63.91
80511;BME280;69840;53.040;8.600;2023-06-05T18:13:49;102134.50;;;16.68;64.60
80511;BME280;69840;53.040;8.600;2023-06-05T18:18:02;102139.47;;;16.79;64.16
80511;BME280;69840;53.040;8.600;2023-06-05T18:22:14;102137.63;;;16.72;64.86
80511;BME280;69840;53.040;8.600;2023-06-05T18:26:26;102154.00;;;16.44;65.18
80511;BME280;69840;53.040;8.600;2023-06-05T18:30:39;102156.19;;;16.33;66.75
80511;BME280;69840;53.040;8.600;2023-06-05T18:34:52;102146.19;;;16.10;67.86
80511;BME280;69840;53.040;8.600;2023-06-05T18:39:04;102147.78;;;15.63;68.79
80511;BME280;69840;53.040;8.600;2023-06-05T18:43:17;102151.97;;;15.65;70.76
80511;BME280;69840;53.040;8.600;2023-06-05T18:47:29;102159.44;;;15.62;70.17
80511;BME280;69840;53.040;8.600;2023-06-05T18:51:42;102161.66;;;15.32;71.46
80511;BME280;69840;53.040;8.600;2023-06-05T18:55:54;102162.59;;;15.15;72.79
80511;BME280;69840;53.040;8.600;2023-06-05T19:00:08;102162.56;;;14.81;74.05
80511;BME280;69840;53.040;8.600;2023-06-05T19:04:20;102175.16;;;14.71;73.38
80511;BME280;69840;53.040;8.600;2023-06-05T19:08:34;102173.19;;;14.47;75.56
80511;BME280;69840;53.040;8.600;2023-06-05T19:12:48;102169.75;;;14.19;76.41
80511;BME280;69840;53.040;8.600;2023-06-05T19:17:00;102184.81;;;14.11;77.24
80511;BME280;69840;53.040;8.600;2023-06-05T19:21:13;102185.09;;;14.08;76.75
80511;BME280;69840;53.040;8.600;2023-06-05T19:25:25;102178.56;;;14.02;77.29
80511;BME280;69840;53.040;8.600;2023-06-05T19:29:38;102184.09;;;13.91;76.87
80511;BME280;69840;53.040;8.600;2023-06-05T19:33:50;102191.19;;;13.82;77.50
80511;BME280;69840;53.040;8.600;2023-06-05T19:38:03;102200.56;;;13.77;77.26
80511;BME280;69840;53.040;8.600;2023-06-05T19:42:15;102202.16;;;13.69;77.07
80511;BME280;69840;53.040;8.600;2023-06-05T19:46:28;102215.09;;;13.55;79.13
80511;BME280;69840;53.040;8.600;2023-06-05T19:50:41;102214.31;;;13.45;78.60
80511;BME280;69840;53.040;8.600;2023-06-05T19:54:53;102219.38;;;13.38;78.53
80511;BME280;69840;53.040;8.600;2023-06-05T19:59:06;102220.25;;;13.29;78.96
80511;BME280;69840;53.040;8.600;2023-06-05T20:03:18;102218.34;;;13.21;80.90
80511;BME280;69840;53.040;8.600;2023-06-05T20:07:31;102214.44;;;13.16;79.60
80511;BME280;69840;53.040;8.600;2023-06-05T20:11:43;102218.09;;;13.05;80.15
80511;BME280;69840;53.040;8.600;2023-06-05T20:15:56;102221.88;;;13.03;79.82
80511;BME280;69840;53.040;8.600;2023-06-05T20:20:08;102218.94;;;12.96;79.64
80511;BME280;69840;53.040;8.600;2023-06-05T20:24:21;102222.19;;;12.90;81.27
80511;BME280;69840;53.040;8.600;2023-06-05T20:28:33;102231.25;;;12.78;80.86
80511;BME280;69840;53.040;8.600;2023-06-05T20:32:46;102231.56;;;12.75;81.02
80511;BME280;69840;53.040;8.600;2023-06-05T20:36:59;102234.78;;;12.69;80.97
80511;BME280;69840;53.040;8.600;2023-06-05T20:41:11;102234.78;;;12.69;81.50
80511;BME280;69840;53.040;8.600;2023-06-05T20:45:24;102235.78;;;12.58;81.76
80511;BME280;69840;53.040;8.600;2023-06-05T20:49:36;102232.84;;;12.51;82.53
80511;BME280;69840;53.040;8.600;2023-06-05T20:53:49;102241.34;;;12.45;82.05
80511;BME280;69840;53.040;8.600;2023-06-05T20:58:03;102241.09;;;12.39;82.36
80511;BME280;69840;53.040;8.600;2023-06-05T21:02:16;102237.75;;;12.37;82.83
80511;BME280;69840;53.040;8.600;2023-06-05T21:06:28;102241.25;;;12.27;83.09
80511;BME280;69840;53.040;8.600;2023-06-05T21:10:41;102252.94;;;12.25;83.43
80511;BME280;69840;53.040;8.600;2023-06-05T21:14:54;102252.66;;;12.18;83.29
80511;BME280;69840;53.040;8.600;2023-06-05T21:19:06;102250.41;;;12.14;84.04
80511;BME280;69840;53.040;8.600;2023-06-05T21:23:19;102251.38;;;12.13;83.12
80511;BME280;69840;53.040;8.600;2023-06-05T21:27:31;102241.34;;;12.07;84.34
80511;BME280;69840;53.040;8.600;2023-06-05T21:31:45;102233.38;;;11.97;84.82
80511;BME280;69840;53.040;8.600;2023-06-05T21:35:57;102237.25;;;11.83;84.88
80511;BME280;69840;53.040;8.600;2023-06-05T21:40:10;102237.81;;;11.77;84.44
80511;BME280;69840;53.040;8.600;2023-06-05T21:44:25;102243.81;;;11.79;84.79
80511;BME280;69840;53.040;8.600;2023-06-05T21:48:38;102244.06;;;11.76;85.10
80511;BME280;69840;53.040;8.600;2023-06-05T21:52:50;102233.00;;;11.71;85.39
80511;BME280;69840;53.040;8.600;2023-06-05T21:57:03;102231.59;;;11.67;86.03
80511;BME280;69840;53.040;8.600;2023-06-05T22:01:15;102238.69;;;11.67;85.72
80511;BME280;69840;53.040;8.600;2023-06-05T22:05:27;102234.66;;;11.63;85.40
80511;BME280;69840;53.040;8.600;2023-06-05T22:09:40;102242.75;;;11.61;85.12
80511;BME280;69840;53.040;8.600;2023-06-05T22:13:53;102240.38;;;11.58;85.89
80511;BME280;69840;53.040;8.600;2023-06-05T22:18:06;102233.91;;;11.51;85.74
80511;BME280;69840;53.040;8.600;2023-06-05T22:22:18;102244.78;;;11.48;86.03
80511;BME280;69840;53.040;8.600;2023-06-05T22:26:31;102244.25;;;11.54;85.96
80511;BME280;69840;53.040;8.600;2023-06-05T22:30:43;102246.06;;;11.53;85.88